createdAt,value
2019-04-16T00:02:18.877Z,52.20
2019-04-16T00:05:08.357Z,52.60
2019-04-16T00:07:55.403Z,52.30
2019-04-16T00:10:42.900Z,53.50
2019-04-16T00:13:30.678Z,52.60
2019-04-16T00:16:01.355Z,52.40
2019-04-16T00:18:31.373Z,52.40
2019-04-16T00:21:19.146Z,53.30
2019-04-16T00:24:18.229Z,54.40
2019-04-16T00:26:46.075Z,52.10
2019-04-16T00:29:16.093Z,54.10
2019-04-16T00:32:07.846Z,53.60
2019-04-16T00:34:36.577Z,53.70
2019-04-16T00:37:06.544Z,52.90
2019-04-16T00:39:36.546Z,53.70
2019-04-16T00:42:06.593Z,53.10
2019-04-16T00:44:36.852Z,53.90
2019-04-16T00:47:07.116Z,55.00
2019-04-16T00:49:37.993Z,54.50
2019-04-16T00:52:08.333Z,54.20
2019-04-16T00:54:39.278Z,53.50
2019-04-16T00:57:12.279Z,54.60
2019-04-16T00:59:42.316Z,57.90
2019-04-16T01:02:12.394Z,55.20
2019-04-16T01:04:42.413Z,53.60
2019-04-16T01:07:12.425Z,53.30
2019-04-16T01:09:42.441Z,53.00
2019-04-16T01:12:12.454Z,52.80
2019-04-16T01:14:42.743Z,52.80
2019-04-16T01:17:12.686Z,53.80
2019-04-16T01:19:42.712Z,54.00
2019-04-16T01:22:15.766Z,54.10
2019-04-16T01:24:44.297Z,56.70
2019-04-16T01:27:14.288Z,55.00
2019-04-16T01:29:44.264Z,54.20
2019-04-16T01:32:32.004Z,53.90
2019-04-16T01:35:33.337Z,54.60
2019-04-16T01:38:40.348Z,54.20
2019-04-16T01:41:12.729Z,54.10
2019-04-16T01:43:42.639Z,54.00
2019-04-16T01:46:12.649Z,54.60
2019-04-16T01:48:42.744Z,54.80
2019-04-16T01:51:15.445Z,54.80
2019-04-16T01:53:44.454Z,54.90
2019-04-16T01:56:14.526Z,54.50
2019-04-16T01:58:44.517Z,54.70
2019-04-16T02:01:14.571Z,54.30
2019-04-16T02:03:48.648Z,55.80
2019-04-16T02:06:16.240Z,54.30
2019-04-16T02:08:46.187Z,56.20
2019-04-16T02:11:16.179Z,54.70
2019-04-16T02:13:46.968Z,55.00
2019-04-16T02:16:17.022Z,55.00
2019-04-16T02:18:47.007Z,55.10
2019-04-16T02:21:16.992Z,56.00
2019-04-16T02:23:48.121Z,57.20
2019-04-16T02:26:20.656Z,55.50
2019-04-16T02:28:50.251Z,55.10
2019-04-16T02:31:20.212Z,57.60
2019-04-16T02:33:50.239Z,55.50
2019-04-16T02:36:20.548Z,55.40
2019-04-16T02:38:53.418Z,56.00
2019-04-16T02:41:23.305Z,57.30
2019-04-16T02:43:54.102Z,56.60
2019-04-16T02:46:30.782Z,57.80
2019-04-16T02:48:55.770Z,56.90
2019-04-16T02:51:44.596Z,55.70
2019-04-16T02:54:32.285Z,55.90
2019-04-16T02:57:25.737Z,55.20
2019-04-16T02:59:54.109Z,54.30
2019-04-16T03:02:54.005Z,56.10
2019-04-16T03:05:39.142Z,56.30
2019-04-16T03:08:09.064Z,54.80
2019-04-16T03:10:41.897Z,58.30
2019-04-16T03:13:10.772Z,55.90
2019-04-16T03:16:06.536Z,55.80
2019-04-16T03:18:46.891Z,56.20
2019-04-16T03:21:14.199Z,55.50
2019-04-16T03:23:46.604Z,56.70
2019-04-16T03:26:18.083Z,56.20
2019-04-16T03:28:48.251Z,58.30
2019-04-16T03:31:22.237Z,57.50
2019-04-16T03:33:50.977Z,57.90
2019-04-16T03:36:21.194Z,56.20
2019-04-16T03:38:51.175Z,56.90
2019-04-16T03:41:21.164Z,57.30
2019-04-16T03:43:51.163Z,55.40
2019-04-16T03:46:21.157Z,57.90
2019-04-16T03:48:52.634Z,56.90
2019-04-16T03:51:22.860Z,57.40
2019-04-16T03:53:52.824Z,58.60
2019-04-16T03:56:22.840Z,58.60
2019-04-16T03:58:52.832Z,60.10
2019-04-16T04:01:22.905Z,58.30
2019-04-16T04:03:57.073Z,57.10
2019-04-16T04:06:24.522Z,58.30
2019-04-16T04:08:54.571Z,59.30
2019-04-16T04:11:24.585Z,57.00
2019-04-16T04:13:54.578Z,58.30
2019-04-16T04:16:24.790Z,57.20
2019-04-16T04:18:54.904Z,56.60
2019-04-16T04:21:24.925Z,57.20
2019-04-16T04:23:59.705Z,60.00
2019-04-16T04:26:26.587Z,57.50
2019-04-16T04:28:56.633Z,56.80
2019-04-16T04:31:26.715Z,60.00
2019-04-16T04:33:58.327Z,59.80
2019-04-16T04:36:28.504Z,61.00
2019-04-16T04:38:58.833Z,58.60
2019-04-16T04:41:28.957Z,56.60
2019-04-16T04:44:03.885Z,58.00
2019-04-16T04:46:30.674Z,59.30
2019-04-16T04:49:00.700Z,57.30
2019-04-16T04:51:30.708Z,59.30
2019-04-16T04:54:00.751Z,58.90
2019-04-16T04:56:30.736Z,59.30
2019-04-16T04:59:02.530Z,58.00
2019-04-16T05:01:32.345Z,57.20
2019-04-16T05:04:24.028Z,55.80
2019-04-16T05:06:57.321Z,57.50
2019-04-16T05:09:29.411Z,59.50
2019-04-16T05:11:58.834Z,58.70
2019-04-16T05:14:28.855Z,58.40
2019-04-16T05:16:58.879Z,58.40
2019-04-16T05:19:28.897Z,59.60
2019-04-16T05:21:58.981Z,58.90
2019-04-16T05:24:29.900Z,57.50
2019-04-16T05:27:00.041Z,59.40
2019-04-16T05:29:30.052Z,57.40
2019-04-16T05:32:00.079Z,55.30
2019-04-16T05:34:30.082Z,58.20
2019-04-16T05:37:00.102Z,57.30
2019-04-16T05:39:30.089Z,58.20
2019-04-16T05:42:00.138Z,57.90
2019-04-16T05:44:33.060Z,57.10
2019-04-16T05:47:01.763Z,58.10
2019-04-16T05:49:34.552Z,57.00
2019-04-16T05:52:07.678Z,57.30
2019-04-16T05:55:01.417Z,57.90
2019-04-16T05:57:33.858Z,58.10
2019-04-16T06:00:09.322Z,59.40
2019-04-16T06:02:39.958Z,57.20
2019-04-16T06:05:09.913Z,56.00
2019-04-16T06:07:39.892Z,56.30
2019-04-16T06:10:10.294Z,56.40
2019-04-16T06:13:00.921Z,57.30
2019-04-16T06:15:53.931Z,57.90
2019-04-16T06:18:41.688Z,57.80
2019-04-16T06:21:25.614Z,56.60
2019-04-16T06:24:09.279Z,57.00
2019-04-16T06:26:51.418Z,57.10
2019-04-16T06:29:52.483Z,57.00
2019-04-16T06:32:34.200Z,56.30
2019-04-16T06:35:23.075Z,56.60
2019-04-16T06:38:15.560Z,56.20
2019-04-16T06:41:04.079Z,56.60
2019-04-16T06:43:40.308Z,57.40
2019-04-16T06:46:27.844Z,55.80
2019-04-16T06:49:29.049Z,57.00
2019-04-16T06:52:33.191Z,56.80
2019-04-16T06:55:20.819Z,56.80
2019-04-16T06:58:12.453Z,56.40
2019-04-16T07:00:58.801Z,57.00
2019-04-16T07:03:49.483Z,57.30
2019-04-16T07:06:37.146Z,57.30
2019-04-16T07:09:40.857Z,56.80
2019-04-16T07:12:10.692Z,57.10
2019-04-16T07:14:40.729Z,57.30
2019-04-16T07:17:10.679Z,57.20
2019-04-16T07:19:42.142Z,56.70
2019-04-16T07:22:12.306Z,57.30
2019-04-16T07:24:42.303Z,57.30
2019-04-16T07:27:12.409Z,57.80
2019-04-16T07:30:06.933Z,56.40
2019-04-16T07:32:50.466Z,56.80
2019-04-16T07:35:39.333Z,57.10
2019-04-16T07:38:46.718Z,57.90
2019-04-16T07:41:31.167Z,57.80
2019-04-16T07:44:18.365Z,57.80
2019-04-16T07:47:19.805Z,57.30
2019-04-16T07:49:59.962Z,57.50
2019-04-16T07:52:35.814Z,58.90
2019-04-16T07:55:16.929Z,58.00
2019-04-16T07:57:46.973Z,57.90
2019-04-16T08:00:17.053Z,58.80
2019-04-16T08:02:47.069Z,59.00
2019-04-16T08:05:17.014Z,59.20
2019-04-16T08:07:49.695Z,58.80
2019-04-16T08:10:18.562Z,57.30
2019-04-16T08:12:52.404Z,57.90
2019-04-16T08:15:22.509Z,57.60
2019-04-16T08:17:52.535Z,58.70
2019-04-16T08:20:22.577Z,58.40
2019-04-16T08:22:55.636Z,57.40
2019-04-16T08:25:33.519Z,57.80
2019-04-16T08:27:59.545Z,58.90
2019-04-16T08:30:34.539Z,59.20
2019-04-16T08:33:01.286Z,58.60
2019-04-16T08:35:31.390Z,58.80
2019-04-16T08:38:01.409Z,59.10
2019-04-16T08:40:31.384Z,58.60
2019-04-16T08:43:01.385Z,59.00
2019-04-16T08:45:31.439Z,59.40
2019-04-16T08:48:01.790Z,58.70
2019-04-16T08:50:31.779Z,57.80
2019-04-16T08:53:01.835Z,58.50
2019-04-16T08:55:31.856Z,57.80
2019-04-16T08:58:05.909Z,59.30
2019-04-16T09:00:34.156Z,58.90
2019-04-16T09:03:04.291Z,57.90
2019-04-16T09:05:34.425Z,58.70
2019-04-16T09:08:15.577Z,59.10
2019-04-16T09:10:45.676Z,59.00
2019-04-16T09:13:18.745Z,59.50
2019-04-16T09:15:48.728Z,58.80
2019-04-16T09:18:40.819Z,59.50
2019-04-16T09:21:11.676Z,57.60
2019-04-16T09:23:45.607Z,57.30
2019-04-16T09:26:26.906Z,57.00
2019-04-16T09:29:15.839Z,56.50
2019-04-16T09:32:17.011Z,52.90
2019-04-16T09:35:11.352Z,57.70
2019-04-16T09:37:57.346Z,57.60
2019-04-16T09:40:49.054Z,57.50
2019-04-16T09:43:21.532Z,59.40
2019-04-16T09:45:51.732Z,56.20
2019-04-16T09:48:21.929Z,56.60
2019-04-16T09:50:52.188Z,56.10
2019-04-16T09:53:32.602Z,56.20
2019-04-16T09:55:54.047Z,57.70
2019-04-16T09:58:25.562Z,56.30
2019-04-16T10:01:07.376Z,56.60
2019-04-16T10:03:39.332Z,57.00
2019-04-16T10:06:09.379Z,55.90
2019-04-16T10:08:44.502Z,57.10
2019-04-16T10:11:11.089Z,57.20
2019-04-16T10:13:41.100Z,56.10
2019-04-16T10:16:14.000Z,56.40
2019-04-16T10:18:42.908Z,56.00
2019-04-16T10:21:13.020Z,55.20
2019-04-16T10:24:13.154Z,54.80
2019-04-16T10:26:43.114Z,55.10
2019-04-16T10:29:15.487Z,52.80
2019-04-16T10:31:45.625Z,55.40
2019-04-16T10:34:15.717Z,53.70
2019-04-16T10:36:46.047Z,54.70
2019-04-16T10:39:36.014Z,53.50
2019-04-16T10:42:17.643Z,54.50
2019-04-16T10:45:27.438Z,53.90
2019-04-16T10:48:16.301Z,53.40
2019-04-16T10:50:56.217Z,53.90
2019-04-16T10:53:40.397Z,52.80
2019-04-16T10:56:35.268Z,52.50
2019-04-16T10:59:22.951Z,53.80
2019-04-16T11:02:11.993Z,52.30
2019-04-16T11:05:04.005Z,51.70
2019-04-16T11:07:34.093Z,54.00
2019-04-16T11:10:04.417Z,52.50
2019-04-16T11:12:34.651Z,51.80
2019-04-16T11:15:04.753Z,52.10
2019-04-16T11:17:34.870Z,50.80
2019-04-16T11:20:06.189Z,49.60
2019-04-16T11:22:36.490Z,49.10
2019-04-16T11:25:06.588Z,51.00
2019-04-16T11:27:36.618Z,50.50
2019-04-16T11:30:09.192Z,50.70
2019-04-16T11:32:40.153Z,50.60
2019-04-16T11:35:13.086Z,50.80
2019-04-16T11:37:44.441Z,49.40
2019-04-16T11:40:13.640Z,48.60
2019-04-16T11:42:43.581Z,50.00
2019-04-16T11:45:14.703Z,49.10
2019-04-16T11:47:47.973Z,47.90
2019-04-16T11:50:16.305Z,48.30
2019-04-16T11:52:46.264Z,49.30
2019-04-16T11:55:16.454Z,47.40
2019-04-16T11:57:46.565Z,46.90
2019-04-16T12:00:22.143Z,47.90
2019-04-16T12:02:59.181Z,45.90
2019-04-16T12:05:44.643Z,46.50
2019-04-16T12:08:36.533Z,47.00
2019-04-16T12:11:27.092Z,47.70
2019-04-16T12:14:08.697Z,46.60
2019-04-16T12:16:55.858Z,45.00
2019-04-16T12:19:44.954Z,47.00
2019-04-16T12:22:45.663Z,44.60
2019-04-16T12:25:33.449Z,48.30
2019-04-16T12:28:31.611Z,48.00
2019-04-16T12:31:26.703Z,46.40
2019-04-16T12:34:13.249Z,47.00
2019-04-16T12:37:00.940Z,44.10
2019-04-16T12:39:43.878Z,45.60
2019-04-16T12:42:42.137Z,45.30
2019-04-16T12:45:32.104Z,47.00
2019-04-16T12:48:33.452Z,44.40
2019-04-16T12:51:40.786Z,43.70
2019-04-16T12:54:13.752Z,47.60
2019-04-16T12:57:02.660Z,47.50
2019-04-16T13:00:00.738Z,45.40
2019-04-16T13:02:48.645Z,44.20
2019-04-16T13:05:44.641Z,46.40
2019-04-16T13:08:32.441Z,42.20
2019-04-16T13:11:19.355Z,44.70
2019-04-16T13:14:14.167Z,45.50
2019-04-16T13:17:09.120Z,40.70
2019-04-16T13:19:44.109Z,41.70
2019-04-16T13:22:15.359Z,42.00
2019-04-16T13:24:52.696Z,41.80
2019-04-16T13:27:25.299Z,44.70
2019-04-16T13:29:55.414Z,38.70
2019-04-16T13:32:27.839Z,42.70
2019-04-16T13:34:58.242Z,44.10
2019-04-16T13:37:30.556Z,43.90
2019-04-16T13:40:09.021Z,40.50
2019-04-16T13:42:39.065Z,41.20
2019-04-16T13:45:37.517Z,41.70
2019-04-16T13:48:17.786Z,43.20
2019-04-16T13:50:53.244Z,42.90
2019-04-16T13:53:40.958Z,42.10
2019-04-16T13:56:51.583Z,41.60
2019-04-16T13:59:24.666Z,41.70
2019-04-16T14:02:21.982Z,41.70
2019-04-16T14:04:52.028Z,42.80
2019-04-16T14:07:25.277Z,42.00
2019-04-16T14:09:53.835Z,41.70
2019-04-16T14:12:40.813Z,42.40
2019-04-16T14:14:55.650Z,41.90
2019-04-16T14:17:26.883Z,42.40
2019-04-16T14:19:56.863Z,40.60
2019-04-16T14:22:26.903Z,39.50
2019-04-16T14:24:56.922Z,41.30
2019-04-16T14:27:27.021Z,40.40
2019-04-16T14:29:59.109Z,38.40
2019-04-16T14:32:28.936Z,39.50
2019-04-16T14:35:00.855Z,40.40
2019-04-16T14:37:30.802Z,41.40
2019-04-16T14:40:14.796Z,40.00
2019-04-16T14:42:44.945Z,38.40
2019-04-16T14:45:23.620Z,39.00
2019-04-16T14:47:53.643Z,39.70
2019-04-16T14:50:24.460Z,37.90
2019-04-16T14:52:54.676Z,39.90
2019-04-16T14:55:58.745Z,37.70
2019-04-16T14:58:33.017Z,39.50
2019-04-16T15:01:27.985Z,39.30
2019-04-16T15:04:25.756Z,37.40
2019-04-16T15:07:09.788Z,38.70
2019-04-16T15:09:51.015Z,37.80
2019-04-16T15:12:38.679Z,39.50
2019-04-16T15:15:31.396Z,39.20
2019-04-16T15:18:11.840Z,36.70
2019-04-16T15:21:03.256Z,36.50
2019-04-16T15:23:37.079Z,37.40
2019-04-16T15:26:44.160Z,36.30
2019-04-16T15:29:45.279Z,37.30
2019-04-16T15:32:34.089Z,38.10
2019-04-16T15:35:05.743Z,37.60
2019-04-16T15:37:59.168Z,38.90
2019-04-16T15:40:47.249Z,38.10
2019-04-16T15:43:38.041Z,38.40
2019-04-16T15:46:34.637Z,36.30
2019-04-16T15:49:24.066Z,36.50
2019-04-16T15:52:18.999Z,36.70
2019-04-16T15:55:00.401Z,38.30
2019-04-16T15:57:58.509Z,37.20
2019-04-16T16:00:45.147Z,35.80
2019-04-16T16:03:30.200Z,37.50
2019-04-16T16:06:10.909Z,36.70
2019-04-16T16:08:48.458Z,35.70
2019-04-16T16:11:21.621Z,36.00
2019-04-16T16:13:51.735Z,36.20
2019-04-16T16:16:21.705Z,37.50
2019-04-16T16:18:51.745Z,35.90
2019-04-16T16:21:21.802Z,36.70
2019-04-16T16:23:51.891Z,38.20
2019-04-16T16:26:21.939Z,37.20
2019-04-16T16:28:51.944Z,34.20
2019-04-16T16:31:21.948Z,34.20
2019-04-16T16:33:52.049Z,36.10
2019-04-16T16:36:22.105Z,34.40
2019-04-16T16:38:52.121Z,34.80
2019-04-16T16:41:22.142Z,36.70
2019-04-16T16:43:52.240Z,36.50
2019-04-16T16:46:57.202Z,37.60
2019-04-16T16:49:27.669Z,38.80
2019-04-16T16:52:19.659Z,38.90
2019-04-16T16:54:50.405Z,36.20
2019-04-16T16:57:23.321Z,37.00
2019-04-16T17:00:10.849Z,39.50
2019-04-16T17:02:53.936Z,37.10
2019-04-16T17:05:30.507Z,34.90
2019-04-16T17:08:00.568Z,39.10
2019-04-16T17:10:30.592Z,39.10
2019-04-16T17:13:00.590Z,37.90
2019-04-16T17:15:30.796Z,39.60
2019-04-16T17:18:01.131Z,41.70
2019-04-16T17:20:31.398Z,42.10
2019-04-16T17:23:01.507Z,40.20
2019-04-16T17:25:36.583Z,41.00
2019-04-16T17:28:03.275Z,40.40
2019-04-16T17:30:33.362Z,42.30
2019-04-16T17:33:03.429Z,40.50
2019-04-16T17:35:33.459Z,44.80
2019-04-16T17:38:05.046Z,42.00
2019-04-16T17:40:58.074Z,43.00
2019-04-16T17:43:28.295Z,42.90
2019-04-16T17:46:17.108Z,44.10
2019-04-16T17:48:58.605Z,43.40
2019-04-16T17:51:42.893Z,44.80
2019-04-16T17:54:27.770Z,40.50
2019-04-16T17:57:15.210Z,46.70
2019-04-16T18:00:07.079Z,45.00
2019-04-16T18:03:15.222Z,46.60
2019-04-16T18:05:51.770Z,41.50
2019-04-16T18:08:44.409Z,46.10
2019-04-16T18:11:23.505Z,45.20
2019-04-16T18:14:11.919Z,42.60
2019-04-16T18:16:54.111Z,41.00
2019-04-16T18:19:50.328Z,47.40
2019-04-16T18:22:26.755Z,50.00
2019-04-16T18:25:14.302Z,47.20
2019-04-16T18:27:51.238Z,47.00
2019-04-16T18:30:46.190Z,45.90
2019-04-16T18:33:32.516Z,46.80
2019-04-16T18:36:23.288Z,43.80
2019-04-16T18:39:21.217Z,44.60
2019-04-16T18:41:58.309Z,44.90
2019-04-16T18:44:45.753Z,46.10
2019-04-16T18:47:34.744Z,45.90
2019-04-16T18:50:08.021Z,45.10
2019-04-16T18:52:38.139Z,44.20
2019-04-16T18:55:08.320Z,47.30
2019-04-16T18:57:39.240Z,44.00
2019-04-16T19:00:28.745Z,49.50
2019-04-16T19:02:58.955Z,47.60
2019-04-16T19:05:29.022Z,49.10
2019-04-16T19:07:59.902Z,50.90
2019-04-16T19:10:30.831Z,46.60
2019-04-16T19:13:00.832Z,46.20
2019-04-16T19:15:31.004Z,47.00
2019-04-16T19:18:17.313Z,49.20
2019-04-16T19:20:32.739Z,48.20
2019-04-16T19:23:03.294Z,45.70
2019-04-16T19:25:33.459Z,48.20
2019-04-16T19:28:06.625Z,45.30
2019-04-16T19:30:35.161Z,46.50
2019-04-16T19:33:05.279Z,47.70
2019-04-16T19:35:35.338Z,46.40
2019-04-16T19:38:06.471Z,46.40
2019-04-16T19:40:37.494Z,48.20
2019-04-16T19:43:07.501Z,46.30
2019-04-16T19:45:44.565Z,47.20
2019-04-16T19:48:35.445Z,47.50
2019-04-16T19:50:57.634Z,47.20
2019-04-16T19:53:28.793Z,47.90
2019-04-16T19:56:00.544Z,49.50
2019-04-16T19:58:31.958Z,49.20
2019-04-16T20:01:03.878Z,49.30
2019-04-16T20:03:35.521Z,47.40
2019-04-16T20:06:06.443Z,47.70
2019-04-16T20:08:39.788Z,48.10
2019-04-16T20:11:11.656Z,47.70
2019-04-16T20:13:41.927Z,48.70
2019-04-16T20:16:14.178Z,47.60
2019-04-16T20:18:51.060Z,47.70
2019-04-16T20:21:19.224Z,48.50
2019-04-16T20:23:50.406Z,50.20
2019-04-16T20:26:23.029Z,48.90
2019-04-16T20:28:54.882Z,50.00
2019-04-16T20:31:26.279Z,47.70
2019-04-16T20:33:57.815Z,47.80
2019-04-16T20:36:30.396Z,49.10
2019-04-16T20:39:07.039Z,48.70
2019-04-16T20:41:39.012Z,48.70
2019-04-16T20:44:10.759Z,50.90
2019-04-16T20:46:43.594Z,47.70
2019-04-16T20:49:16.841Z,49.90
2019-04-16T20:51:49.829Z,47.50
2019-04-16T20:54:22.359Z,49.40
2019-04-16T20:56:53.994Z,47.80
2019-04-16T20:59:25.529Z,47.40
2019-04-16T21:01:58.367Z,48.00
2019-04-16T21:04:30.978Z,47.20
2019-04-16T21:07:04.182Z,47.80
2019-04-16T21:09:36.378Z,48.20
2019-04-16T21:12:12.894Z,48.00
2019-04-16T21:14:41.987Z,47.10
2019-04-16T21:17:15.329Z,47.20
2019-04-16T21:19:48.512Z,47.90
2019-04-16T21:22:18.749Z,47.90
2019-04-16T21:24:48.804Z,47.00
2019-04-16T21:27:18.877Z,47.80
2019-04-16T21:29:49.008Z,47.60
2019-04-16T21:32:37.932Z,47.10
2019-04-16T21:35:14.603Z,47.20
2019-04-16T21:37:53.919Z,49.50
2019-04-16T21:40:24.127Z,48.90
2019-04-16T21:42:54.091Z,47.80
2019-04-16T21:45:24.171Z,48.60
2019-04-16T21:47:55.156Z,48.20
2019-04-16T21:50:25.860Z,47.30
2019-04-16T21:52:56.655Z,47.10
2019-04-16T21:55:26.882Z,47.20
2019-04-16T21:57:56.886Z,48.10
2019-04-16T22:00:44.723Z,47.30
2019-04-16T22:03:15.185Z,48.10
2019-04-16T22:05:48.157Z,47.00
2019-04-16T22:08:17.108Z,46.70
2019-04-16T22:10:47.275Z,47.30
2019-04-16T22:13:19.470Z,47.90
2019-04-16T22:15:49.282Z,50.20
2019-04-16T22:18:19.711Z,46.80
2019-04-16T22:20:49.928Z,48.00
2019-04-16T22:23:20.121Z,46.90
2019-04-16T22:25:50.278Z,49.50
2019-04-16T22:28:20.531Z,47.40
2019-04-16T22:30:51.582Z,47.20
2019-04-16T22:33:22.475Z,47.20
2019-04-16T22:35:52.463Z,48.60
2019-04-16T22:38:22.491Z,48.40
2019-04-16T22:40:58.015Z,47.50
2019-04-16T22:43:49.922Z,47.10
2019-04-16T22:46:23.874Z,47.50
2019-04-16T22:49:01.247Z,47.70
2019-04-16T22:51:31.254Z,47.70
2019-04-16T22:54:01.296Z,47.50
2019-04-16T22:56:51.099Z,48.30
2019-04-16T22:59:21.223Z,47.40
2019-04-16T23:01:53.157Z,47.50
2019-04-16T23:04:26.079Z,49.50
2019-04-16T23:06:54.835Z,47.70
2019-04-16T23:09:27.144Z,47.60
2019-04-16T23:11:57.248Z,48.30
2019-04-16T23:14:27.369Z,48.00
2019-04-16T23:16:57.554Z,48.70
2019-04-16T23:19:27.599Z,48.50
2019-04-16T23:21:58.237Z,49.70
2019-04-16T23:24:28.461Z,48.90
2019-04-16T23:26:58.541Z,49.80
2019-04-16T23:29:28.575Z,48.60
2019-04-16T23:32:01.665Z,49.10
2019-04-16T23:34:31.732Z,48.90
2019-04-16T23:37:01.803Z,48.80
2019-04-16T23:39:33.610Z,49.70
2019-04-16T23:42:04.254Z,49.40
2019-04-16T23:44:54.634Z,50.40
2019-04-16T23:47:43.157Z,51.90
2019-04-16T23:50:44.180Z,50.40
2019-04-16T23:53:16.808Z,49.60
2019-04-16T23:56:05.799Z,49.90
2019-04-16T23:59:02.662Z,51.20
